Amity, Maine
Current Conditions -  °F | °C
As of 7:53 PM on Wednesday 26 Nov 2014 (Local Time) from KHUL Reporting Station
Moderate Snow Moderate Snow  
Wind Chill: 21°   Ceiling: 600
Heat Index: 30°   Visibility: 0.5mi
Dew Point: 28°   Wind: 12mph
Humidity: 92%   Direction: 10°N
Pressure: 30.08"   Gusts: NA
Location:  45.8952°N, 67.8479°W
Report Text: KHUL 270053Z AUTO 01010KT 1/2SM SN FZFG VV006 M01/M02 A3008 RMK AO2 SLP191 P0004 T10111022
Loading
Personal Weather Stations






























Interactive Weather Map New forecast layout! Learn more

10-Day Weather Forecast

Advertisements
Track Severe Weather on mobile